Time;durP1;ratioP1;P1;durP2;ratioP2;P2;SDS_P1;SDS_P2;PMS_P1;PMS_P2;Temp;Humidity;BMP_temperature;BMP_pressure;BME280_temperature;BME280_humidity;BME280_pressure;Samples;Min_cycle;Max_cycle;Signal;HPM_P1;HPM_P2
2022/11/01 00:00:10;;;;;;;7.53;4.33;;;17.80;99.90;;;;;;5070407;28;20185;-38
2022/11/01 00:02:36;;;;;;;6.80;4.20;;;17.80;99.90;;;;;;5087030;28;20215;-38
2022/11/01 00:05:02;;;;;;;10.47;4.40;;;17.80;99.90;;;;;;5070488;28;20451;-38
2022/11/01 00:07:28;;;;;;;8.00;4.13;;;17.90;99.90;;;;;;5081691;28;20200;-38
2022/11/01 00:09:53;;;;;;;6.30;4.43;;;17.90;99.90;;;;;;5077394;28;20411;-38
2022/11/01 00:12:19;;;;;;;8.70;3.53;;;17.90;99.90;;;;;;5069337;28;20206;-38
2022/11/01 00:14:45;;;;;;;6.10;3.73;;;17.90;99.90;;;;;;5069245;28;20209;-37
2022/11/01 00:17:10;;;;;;;7.73;4.53;;;17.90;99.90;;;;;;5070679;28;20181;-38
2022/11/01 00:19:36;;;;;;;5.47;3.90;;;18.00;99.90;;;;;;5087532;28;20194;-38
2022/11/01 00:22:02;;;;;;;8.03;4.60;;;17.90;99.90;;;;;;5091460;28;20187;-37
2022/11/01 00:24:30;;;;;;;7.33;4.13;;;18.00;99.90;;;;;;5087829;28;20716;-38
2022/11/01 00:26:56;;;;;;;5.33;3.67;;;18.00;99.90;;;;;;5073257;28;20173;-39
2022/11/01 00:29:22;;;;;;;14.47;4.73;;;18.00;99.90;;;;;;5072763;28;20974;-38
2022/11/01 00:31:48;;;;;;;7.50;4.30;;;18.00;99.90;;;;;;5073209;28;20423;-38
2022/11/01 00:34:15;;;;;;;7.90;3.97;;;18.00;99.90;;;;;;5072224;28;20203;-38
2022/11/01 00:36:41;;;;;;;6.50;4.20;;;18.00;99.90;;;;;;5070704;28;20204;-38
2022/11/01 00:39:06;;;;;;;10.40;4.00;;;18.00;99.90;;;;;;5071520;28;20403;-38
2022/11/01 00:41:33;;;;;;;5.00;4.10;;;18.00;99.90;;;;;;5072255;28;20792;-39
2022/11/01 00:43:59;;;;;;;7.50;4.23;;;18.00;99.90;;;;;;5072691;28;20208;-39
2022/11/01 00:46:24;;;;;;;5.47;3.77;;;18.00;99.90;;;;;;5072813;28;20442;-38
2022/11/01 00:48:50;;;;;;;9.20;3.87;;;17.90;99.90;;;;;;5072615;28;20927;-38
2022/11/01 00:51:16;;;;;;;8.37;5.20;;;18.00;99.90;;;;;;5072918;28;20174;-38
2022/11/01 00:53:41;;;;;;;10.30;5.00;;;18.00;99.90;;;;;;5076255;28;20295;-38
2022/11/01 00:56:07;;;;;;;8.87;4.50;;;17.90;99.90;;;;;;5092645;28;20277;-38
2022/11/01 00:58:33;;;;;;;9.57;4.00;;;17.90;99.90;;;;;;5092817;28;20222;-38
2022/11/01 01:00:59;;;;;;;8.70;3.90;;;17.80;99.90;;;;;;5093108;28;20196;-37
2022/11/01 01:03:24;;;;;;;7.40;4.43;;;17.70;99.90;;;;;;5092613;28;20445;-39
2022/11/01 01:05:51;;;;;;;9.53;4.70;;;17.70;99.90;;;;;;5092789;28;20199;-38
2022/11/01 01:08:17;;;;;;;7.93;3.83;;;17.50;99.90;;;;;;5092636;28;20182;-38
2022/11/01 01:10:43;;;;;;;6.23;4.50;;;17.50;99.90;;;;;;5092383;28;20414;-38
2022/11/01 01:13:09;;;;;;;9.83;4.80;;;17.50;99.90;;;;;;5092307;28;20429;-38
2022/11/01 01:15:36;;;;;;;8.90;5.83;;;17.40;99.90;;;;;;5092761;28;20256;-38
2022/11/01 01:18:01;;;;;;;7.43;4.73;;;17.30;99.90;;;;;;5092712;28;20173;-38
2022/11/01 01:20:27;;;;;;;8.90;4.83;;;17.20;99.90;;;;;;5092358;28;20417;-39
2022/11/01 01:22:53;;;;;;;9.67;4.20;;;17.20;99.90;;;;;;5092091;28;20237;-38
2022/11/01 01:25:19;;;;;;;7.93;4.27;;;17.20;99.90;;;;;;5092398;28;20204;-37
2022/11/01 01:27:45;;;;;;;7.47;4.30;;;17.10;99.90;;;;;;5091269;28;20182;-38
2022/11/01 01:30:11;;;;;;;5.53;4.93;;;17.10;99.90;;;;;;5091993;28;20443;-38
2022/11/01 01:32:37;;;;;;;7.70;4.30;;;17.00;99.90;;;;;;5091303;28;21095;-38
2022/11/01 01:35:03;;;;;;;5.90;4.70;;;16.90;99.90;;;;;;5088550;28;20203;-38
2022/11/01 01:37:29;;;;;;;7.07;5.07;;;16.80;99.90;;;;;;5090553;28;20180;-38
2022/11/01 01:39:54;;;;;;;6.73;4.87;;;16.80;99.90;;;;;;5091684;28;20403;-38
2022/11/01 01:42:29;;;;;;;5.40;4.50;;;16.90;99.90;;;;;;5091955;28;20187;-38
2022/11/01 01:44:54;;;;;;;7.90;5.00;;;16.90;99.90;;;;;;5091895;28;20188;-37
2022/11/01 01:47:32;;;;;;;8.40;5.47;;;16.80;99.90;;;;;;5092057;28;20980;-38
2022/11/01 01:50:12;;;;;;;6.30;4.10;;;16.90;99.90;;;;;;5091705;28;20181;-38
2022/11/01 01:53:04;;;;;;;9.10;4.90;;;16.90;99.90;;;;;;5091707;28;20438;-38
2022/11/01 01:55:36;;;;;;;6.90;4.40;;;16.90;99.90;;;;;;5091992;28;20442;-38
2022/11/01 01:58:02;;;;;;;12.70;6.00;;;16.90;99.90;;;;;;5091876;28;20425;-38
2022/11/01 02:00:28;;;;;;;8.17;5.60;;;16.90;99.90;;;;;;5091231;28;20453;-37
2022/11/01 02:02:54;;;;;;;9.30;4.57;;;16.90;99.90;;;;;;5091362;28;20829;-37
2022/11/01 02:05:35;;;;;;;9.63;4.97;;;16.90;99.90;;;;;;5091669;28;20410;-38
2022/11/01 02:08:01;;;;;;;7.00;4.53;;;16.90;99.90;;;;;;5085419;28;20410;-38
2022/11/01 02:10:29;;;;;;;6.27;4.97;;;16.90;99.90;;;;;;5091329;28;20422;-38
2022/11/01 02:12:55;;;;;;;7.97;4.10;;;17.00;99.90;;;;;;5090946;28;20945;-37
2022/11/01 02:15:26;;;;;;;6.13;4.43;;;17.00;99.90;;;;;;5091584;28;20469;-38
2022/11/01 02:18:10;;;;;;;6.53;4.40;;;17.00;99.90;;;;;;5091513;28;20436;-38
2022/11/01 02:20:48;;;;;;;8.23;4.80;;;17.00;99.90;;;;;;5091207;28;20773;-38
2022/11/01 02:23:40;;;;;;;12.53;4.73;;;17.10;99.90;;;;;;5091099;28;20398;-38
2022/11/01 02:26:19;;;;;;;10.50;4.33;;;17.00;99.90;;;;;;5091258;28;20422;-38
2022/11/01 02:29:09;;;;;;;6.77;4.73;;;17.00;99.90;;;;;;5091003;28;20865;-38
2022/11/01 02:32:00;;;;;;;6.27;4.70;;;17.00;99.90;;;;;;5091192;28;20422;-38
2022/11/01 02:34:32;;;;;;;6.87;4.33;;;17.00;99.90;;;;;;5089651;28;20457;-38
2022/11/01 02:37:07;;;;;;;7.10;4.70;;;17.00;99.90;;;;;;5089564;28;21270;-37
2022/11/01 02:39:38;;;;;;;11.80;4.93;;;17.00;99.90;;;;;;5090418;28;20555;-38
2022/11/01 02:42:26;;;;;;;7.90;4.63;;;17.00;99.90;;;;;;5090973;28;20415;-37
2022/11/01 02:44:58;;;;;;;6.87;4.63;;;17.00;99.90;;;;;;5090549;28;20768;-38
2022/11/01 02:47:26;;;;;;;7.97;5.40;;;17.00;99.90;;;;;;5091002;28;20883;-38
2022/11/01 02:49:58;;;;;;;5.23;4.47;;;16.90;99.90;;;;;;5090510;28;20445;-38
2022/11/01 02:52:25;;;;;;;9.80;4.73;;;16.90;99.90;;;;;;5089345;28;20417;-39
2022/11/01 02:54:56;;;;;;;10.03;5.23;;;16.90;99.90;;;;;;5090610;28;20450;-38
2022/11/01 02:57:33;;;;;;;9.60;4.20;;;16.90;99.90;;;;;;5090593;28;20831;-38
2022/11/01 03:00:03;;;;;;;7.33;4.40;;;16.90;99.90;;;;;;5090564;28;20410;-39
2022/11/01 03:02:53;;;;;;;7.50;4.23;;;16.90;99.90;;;;;;5090493;28;20491;-38
2022/11/01 03:05:23;;;;;;;9.60;5.23;;;16.90;99.90;;;;;;5090730;28;20411;-39
2022/11/01 03:07:58;;;;;;;7.50;4.30;;;16.90;99.90;;;;;;5090634;28;20802;-38
2022/11/01 03:10:34;;;;;;;7.30;5.10;;;16.90;99.90;;;;;;5090239;28;20494;-38
2022/11/01 03:13:27;;;;;;;5.90;3.83;;;16.80;99.90;;;;;;5090194;28;20415;-38
2022/11/01 03:16:17;;;;;;;9.80;5.00;;;16.90;99.90;;;;;;5090281;28;20450;-38
2022/11/01 03:19:01;;;;;;;7.07;4.47;;;16.90;99.90;;;;;;5074991;28;20454;-37
2022/11/01 03:21:31;;;;;;;5.53;4.50;;;16.90;99.90;;;;;;5090409;28;20410;-37
2022/11/01 03:24:07;;;;;;;8.10;4.80;;;16.90;99.90;;;;;;5088573;28;20513;-38
2022/11/01 03:26:36;;;;;;;8.40;4.27;;;16.90;99.90;;;;;;5090421;28;20414;-39
2022/11/01 03:29:06;;;;;;;11.03;5.00;;;16.80;99.90;;;;;;5089799;28;20414;-38
2022/11/01 03:31:37;;;;;;;8.43;4.20;;;16.80;99.90;;;;;;5090226;28;20510;-38
2022/11/01 03:34:12;;;;;;;5.43;4.93;;;16.80;99.90;;;;;;5089852;28;20446;-38
2022/11/01 03:36:44;;;;;;;7.53;4.40;;;16.80;99.90;;;;;;5088740;28;20943;-38
2022/11/01 03:39:19;;;;;;;7.97;5.07;;;16.80;99.90;;;;;;5089811;28;20463;-38
2022/11/01 03:41:50;;;;;;;11.40;4.40;;;16.80;99.90;;;;;;5090034;28;20421;-38
2022/11/01 03:44:16;;;;;;;5.20;3.83;;;16.80;99.90;;;;;;5088621;28;20901;-38
2022/11/01 03:46:42;;;;;;;9.70;5.40;;;16.80;99.90;;;;;;5089772;28;20418;-37
2022/11/01 03:49:08;;;;;;;5.40;4.17;;;16.80;99.90;;;;;;5089662;28;20497;-38
2022/11/01 03:51:33;;;;;;;9.77;4.07;;;16.80;99.90;;;;;;5088659;28;20505;-38
2022/11/01 03:53:59;;;;;;;5.07;4.00;;;16.80;99.90;;;;;;5089879;28;20192;-38
2022/11/01 03:56:25;;;;;;;8.00;3.80;;;16.80;99.90;;;;;;5090775;28;20641;-38
2022/11/01 03:58:50;;;;;;;5.73;4.30;;;16.80;99.90;;;;;;5093990;28;20172;-37
2022/11/01 04:01:17;;;;;;;5.10;3.83;;;16.80;99.90;;;;;;5093813;28;20180;-38
2022/11/01 04:03:43;;;;;;;5.30;3.77;;;16.90;99.90;;;;;;5091888;28;20238;-38
2022/11/01 04:06:09;;;;;;;6.93;4.00;;;16.80;99.90;;;;;;5093960;28;20908;-38
2022/11/01 04:08:35;;;;;;;6.20;4.20;;;16.90;99.90;;;;;;5093529;28;20438;-37
2022/11/01 04:11:02;;;;;;;9.07;4.30;;;16.90;99.90;;;;;;5094054;28;20188;-38
2022/11/01 04:13:27;;;;;;;7.00;3.90;;;16.90;99.90;;;;;;5093385;28;20505;-38
2022/11/01 04:20:31;;;;;;;9.90;4.87;;;16.90;99.90;;;;;;5093341;28;20275;-38
2022/11/01 04:21:39;;;;;;;6.00;4.37;;;16.90;99.90;;;;;;5093568;28;20432;-38
2022/11/01 04:24:05;;;;;;;5.23;4.37;;;16.80;99.90;;;;;;5093190;28;20426;-38
2022/11/01 04:26:31;;;;;;;7.03;4.30;;;16.90;99.90;;;;;;5093821;28;20418;-38
2022/11/01 04:28:56;;;;;;;4.90;3.80;;;16.90;99.90;;;;;;5093351;28;20414;-39
2022/11/01 04:31:34;;;;;;;9.00;4.20;;;16.90;99.90;;;;;;5093690;28;20184;-37
2022/11/01 04:34:01;;;;;;;6.13;4.50;;;16.90;99.90;;;;;;5093367;28;20263;-38
2022/11/01 04:36:27;;;;;;;4.67;3.90;;;16.90;99.90;;;;;;5091894;28;20505;-38
2022/11/01 04:38:55;;;;;;;7.97;4.47;;;17.00;99.90;;;;;;5092339;28;20507;-38
2022/11/01 04:41:22;;;;;;;6.13;3.50;;;17.00;99.90;;;;;;5089937;28;20185;-38
2022/11/01 04:43:48;;;;;;;8.90;4.47;;;17.00;99.90;;;;;;5092278;28;20422;-38
2022/11/01 04:46:15;;;;;;;7.47;4.50;;;17.00;99.90;;;;;;5092986;28;20414;-38
2022/11/01 04:48:41;;;;;;;9.90;3.30;;;17.00;99.90;;;;;;5092762;28;20446;-38
2022/11/01 04:51:07;;;;;;;5.60;3.47;;;17.10;99.90;;;;;;5092905;28;20446;-38
2022/11/01 04:53:34;;;;;;;5.93;3.40;;;17.10;99.90;;;;;;5092851;28;20959;-38
2022/11/01 04:56:04;;;;;;;5.97;3.10;;;17.10;99.90;;;;;;5092567;28;20819;-38
2022/11/01 04:58:32;;;;;;;5.87;3.10;;;17.10;99.90;;;;;;5092645;28;20421;-37
2022/11/01 05:00:57;;;;;;;5.30;3.60;;;17.10;99.90;;;;;;5093010;28;20438;-38
2022/11/01 05:03:23;;;;;;;4.33;3.60;;;17.10;99.90;;;;;;5091468;28;21259;-38
2022/11/01 05:05:49;;;;;;;5.73;3.10;;;17.20;99.90;;;;;;5092587;28;20196;-38
2022/11/01 05:08:15;;;;;;;6.77;3.87;;;17.20;99.90;;;;;;5092533;28;20207;-38
2022/11/01 05:10:43;;;;;;;6.63;3.40;;;17.20;99.90;;;;;;5092581;28;20266;-37
2022/11/01 05:13:11;;;;;;;5.23;3.13;;;17.20;99.90;;;;;;5091224;28;20212;-38
2022/11/01 05:15:36;;;;;;;6.10;3.47;;;17.20;99.90;;;;;;5092654;28;20544;-38
2022/11/01 05:18:03;;;;;;;6.03;3.37;;;17.20;99.90;;;;;;5092618;28;20506;-38
2022/11/01 05:20:30;;;;;;;5.80;3.60;;;17.20;99.90;;;;;;5092064;28;20180;-38
2022/11/01 05:23:03;;;;;;;8.27;3.77;;;17.20;99.90;;;;;;5092370;28;20908;-38
2022/11/01 05:25:29;;;;;;;5.80;3.30;;;17.20;99.90;;;;;;5092475;28;20446;-38
2022/11/01 05:28:10;;;;;;;7.13;3.93;;;17.20;99.90;;;;;;5092534;28;20503;-38
2022/11/01 05:30:37;;;;;;;7.17;3.20;;;17.30;99.90;;;;;;5092005;28;20773;-38
2022/11/01 05:33:04;;;;;;;4.23;2.80;;;17.20;99.90;;;;;;5092013;28;20422;-38
2022/11/01 05:35:31;;;;;;;4.67;3.10;;;17.20;99.90;;;;;;5092111;28;20808;-38
2022/11/01 05:37:57;;;;;;;4.10;3.17;;;17.20;99.90;;;;;;5089566;28;20937;-38
2022/11/01 05:40:23;;;;;;;10.67;3.57;;;17.20;99.90;;;;;;5089789;28;20430;-39
2022/11/01 05:42:49;;;;;;;4.73;3.00;;;17.20;99.90;;;;;;5089910;28;20204;-38
2022/11/01 05:45:15;;;;;;;5.07;3.60;;;17.20;99.90;;;;;;5091881;28;21119;-37
2022/11/01 05:47:40;;;;;;;7.13;3.63;;;17.20;99.90;;;;;;5088581;28;20550;-38
2022/11/01 05:50:08;;;;;;;9.20;3.90;;;17.20;99.90;;;;;;5091812;28;20525;-38
2022/11/01 05:52:33;;;;;;;5.00;3.30;;;17.20;99.90;;;;;;5091704;28;20188;-38
2022/11/01 05:54:59;;;;;;;5.40;3.20;;;17.10;99.90;;;;;;5091807;28;20458;-38
2022/11/01 05:57:25;;;;;;;4.97;4.10;;;17.10;99.90;;;;;;5091663;28;20208;-38
2022/11/01 05:59:51;;;;;;;5.80;3.87;;;17.10;99.90;;;;;;5091128;28;20674;-38
2022/11/01 06:02:16;;;;;;;5.40;3.23;;;17.10;99.90;;;;;;5090650;28;20470;-38
2022/11/01 06:04:42;;;;;;;5.90;3.50;;;17.00;99.90;;;;;;5099460;28;20179;-38
2022/11/01 06:07:08;;;;;;;4.37;3.67;;;17.00;99.90;;;;;;5078809;28;20254;-38
2022/11/01 06:09:33;;;;;;;6.17;3.47;;;17.10;99.90;;;;;;5080327;28;20180;-38
2022/11/01 06:11:59;;;;;;;4.33;3.60;;;17.00;99.90;;;;;;5077778;28;20640;-39
2022/11/01 06:14:24;;;;;;;4.07;3.13;;;17.10;99.90;;;;;;5078259;28;20639;-37
2022/11/01 06:16:50;;;;;;;3.70;2.83;;;17.10;99.90;;;;;;5081074;28;20188;-38
2022/11/01 06:19:16;;;;;;;4.33;3.00;;;17.10;99.90;;;;;;5078852;28;20197;-38
2022/11/01 06:21:41;;;;;;;3.40;2.70;;;17.10;99.90;;;;;;5090772;28;20188;-38
2022/11/01 06:24:10;;;;;;;4.60;2.53;;;17.00;99.90;;;;;;5091140;28;20187;-38
2022/11/01 06:26:35;;;;;;;4.53;2.63;;;17.10;99.90;;;;;;5091286;28;20187;-38
2022/11/01 06:29:01;;;;;;;7.93;3.70;;;17.00;99.90;;;;;;5090829;28;20418;-38
2022/11/01 06:31:27;;;;;;;3.20;2.50;;;17.00;99.90;;;;;;5091084;28;20285;-37
2022/11/01 06:33:53;;;;;;;5.93;3.57;;;17.10;99.90;;;;;;5086944;28;20930;-37
2022/11/01 06:36:19;;;;;;;4.33;2.70;;;17.00;99.90;;;;;;5089329;28;20215;-38
2022/11/01 06:38:44;;;;;;;3.23;2.70;;;17.00;99.90;;;;;;5088855;28;20185;-38
2022/11/01 06:41:10;;;;;;;5.80;2.67;;;17.00;99.90;;;;;;5090835;28;20418;-38
2022/11/01 06:43:36;;;;;;;6.80;2.47;;;17.00;99.90;;;;;;5090838;28;20196;-38
2022/11/01 06:46:01;;;;;;;5.27;2.70;;;17.00;99.90;;;;;;5090676;28;20596;-37
2022/11/01 06:48:27;;;;;;;4.23;2.43;;;16.90;99.90;;;;;;5090706;28;20275;-38
2022/11/01 06:50:54;;;;;;;3.73;2.50;;;16.90;99.90;;;;;;5097495;28;20244;-38
2022/11/01 06:53:24;;;;;;;3.97;2.43;;;16.90;99.90;;;;;;5110923;28;20425;-38
2022/11/01 06:55:51;;;;;;;5.57;2.20;;;16.90;99.90;;;;;;5111000;28;20955;-38
2022/11/01 06:58:17;;;;;;;3.30;1.90;;;16.90;99.90;;;;;;5091487;28;20434;-39
2022/11/01 07:00:43;;;;;;;3.87;2.07;;;16.80;99.90;;;;;;5090115;28;20446;-37
2022/11/01 07:03:12;;;;;;;2.37;1.70;;;16.80;99.90;;;;;;5090292;28;20415;-38
2022/11/01 07:05:38;;;;;;;3.00;1.67;;;16.80;99.90;;;;;;5090539;28;20253;-38
2022/11/01 07:08:06;;;;;;;3.30;1.50;;;16.80;99.90;;;;;;5090574;28;20781;-38
2022/11/01 07:10:32;;;;;;;2.23;1.47;;;16.70;99.90;;;;;;5090346;28;20430;-38
2022/11/01 07:13:00;;;;;;;5.10;1.70;;;16.60;99.90;;;;;;5089953;28;20423;-38
2022/11/01 07:15:26;;;;;;;4.43;1.47;;;16.60;99.90;;;;;;5089278;28;20469;-38
2022/11/01 07:18:03;;;;;;;4.83;1.20;;;16.50;99.90;;;;;;5084615;28;20437;-38
2022/11/01 07:20:30;;;;;;;3.70;1.10;;;16.50;99.90;;;;;;5087353;28;20513;-37
2022/11/01 07:23:03;;;;;;;2.57;1.13;;;16.50;99.90;;;;;;5090084;28;20407;-38
2022/11/01 07:25:31;;;;;;;4.10;1.10;;;16.40;99.90;;;;;;5096599;28;20487;-37
2022/11/01 07:27:58;;;;;;;1.63;0.80;;;16.30;99.90;;;;;;5085145;28;21046;-38
2022/11/01 07:30:24;;;;;;;2.10;1.03;;;16.20;99.90;;;;;;5084136;28;20811;-37
2022/11/01 07:32:54;;;;;;;2.03;0.90;;;16.10;99.90;;;;;;5073346;28;20462;-38
2022/11/01 07:35:20;;;;;;;5.30;1.40;;;16.00;99.90;;;;;;5088674;28;20470;-37
2022/11/01 07:37:46;;;;;;;2.63;0.90;;;16.00;99.90;;;;;;5087989;28;20506;-37
2022/11/01 07:40:12;;;;;;;2.60;1.07;;;15.90;99.90;;;;;;5071477;28;20653;-38
2022/11/01 07:42:42;;;;;;;2.20;0.90;;;15.90;99.90;;;;;;5077384;28;20300;-38
2022/11/01 07:45:09;;;;;;;2.80;1.03;;;15.90;99.90;;;;;;5078099;28;20226;-38
2022/11/01 07:47:35;;;;;;;2.97;1.17;;;15.80;99.90;;;;;;5073613;28;20490;-38
2022/11/01 07:50:01;;;;;;;2.53;1.00;;;15.90;99.90;;;;;;5072074;28;20548;-38
2022/11/01 07:52:26;;;;;;;3.70;0.93;;;15.90;99.90;;;;;;5072895;28;20217;-37
2022/11/01 07:54:52;;;;;;;2.60;0.90;;;16.00;99.90;;;;;;5083171;28;20241;-37
2022/11/01 07:57:17;;;;;;;3.70;1.17;;;16.10;99.90;;;;;;5084743;28;20204;-38
2022/11/01 07:59:43;;;;;;;1.93;0.80;;;16.10;99.90;;;;;;5073294;28;20571;-37
2022/11/01 08:02:09;;;;;;;2.37;1.00;;;16.30;99.90;;;;;;5077485;28;20215;-37
2022/11/01 08:04:35;;;;;;;2.00;0.87;;;16.50;99.90;;;;;;5088238;28;20735;-38
2022/11/01 08:07:00;;;;;;;2.23;1.10;;;16.70;99.90;;;;;;5084206;28;20247;-38
2022/11/01 08:09:26;;;;;;;3.00;1.03;;;17.00;99.90;;;;;;5073236;28;20217;-38
2022/11/01 08:11:52;;;;;;;2.00;0.93;;;17.10;99.90;;;;;;5076090;28;20212;-38
2022/11/01 08:14:17;;;;;;;2.30;0.80;;;17.40;99.90;;;;;;5077618;28;20300;-38
2022/11/01 08:16:46;;;;;;;4.43;1.10;;;17.70;99.90;;;;;;5086540;28;20224;-39
2022/11/01 08:19:12;;;;;;;2.30;0.80;;;17.80;99.90;;;;;;5087975;28;20572;-38
2022/11/01 08:21:38;;;;;;;2.53;0.70;;;17.90;99.90;;;;;;5088269;28;20454;-38
2022/11/01 08:24:03;;;;;;;4.60;1.00;;;18.00;99.90;;;;;;5084070;28;20683;-38
2022/11/01 08:26:29;;;;;;;4.57;0.97;;;18.10;99.90;;;;;;5082181;28;20299;-38
2022/11/01 08:28:55;;;;;;;1.20;0.90;;;18.20;99.90;;;;;;5075706;28;20300;-37
2022/11/01 08:31:20;;;;;;;5.13;0.90;;;18.30;99.90;;;;;;5083914;28;20281;-38
2022/11/01 08:33:46;;;;;;;1.37;0.80;;;18.20;99.90;;;;;;5085566;28;20204;-38
2022/11/01 08:36:12;;;;;;;3.60;0.90;;;18.30;99.90;;;;;;5087021;28;20228;-38
2022/11/01 08:38:37;;;;;;;3.47;0.97;;;18.50;99.90;;;;;;5085991;28;20204;-38
2022/11/01 08:41:03;;;;;;;1.40;0.60;;;18.60;99.90;;;;;;5086153;28;20250;-39
2022/11/01 08:43:29;;;;;;;3.43;0.80;;;18.70;99.80;;;;;;5089676;28;20692;-39
2022/11/01 08:45:58;;;;;;;2.57;0.70;;;18.90;99.80;;;;;;5087707;28;20231;-38
2022/11/01 08:48:24;;;;;;;1.70;0.70;;;18.80;99.00;;;;;;5091274;28;20207;-38
2022/11/01 08:50:49;;;;;;;2.00;0.90;;;18.90;99.30;;;;;;5091450;28;20450;-38
2022/11/01 08:53:15;;;;;;;2.37;0.83;;;19.00;99.30;;;;;;5090920;28;20733;-38
2022/11/01 08:55:40;;;;;;;1.50;0.80;;;19.00;98.80;;;;;;5091255;28;20228;-38
2022/11/01 08:58:07;;;;;;;1.50;1.13;;;19.10;99.30;;;;;;5090764;28;20212;-39
2022/11/01 09:00:34;;;;;;;2.27;1.27;;;19.30;99.10;;;;;;5091790;28;20231;-38
2022/11/01 09:03:00;;;;;;;3.70;1.63;;;19.30;98.00;;;;;;5089965;28;20963;-37
2022/11/01 09:05:28;;;;;;;3.13;1.20;;;19.40;97.40;;;;;;5089739;28;20489;-38
2022/11/01 09:07:58;;;;;;;5.23;1.30;;;19.30;96.20;;;;;;5083118;28;20458;-38
2022/11/01 09:10:24;;;;;;;3.80;1.40;;;19.20;96.00;;;;;;5079049;28;20454;-38
2022/11/01 09:12:49;;;;;;;4.43;1.37;;;19.10;95.90;;;;;;5075452;28;20462;-38
2022/11/01 09:15:15;;;;;;;4.93;1.50;;;19.20;95.50;;;;;;5089172;28;20492;-37
2022/11/01 09:17:41;;;;;;;4.23;1.17;;;19.10;95.30;;;;;;5090289;28;20319;-37
2022/11/01 09:20:08;;;;;;;6.57;1.70;;;19.10;94.30;;;;;;5090150;28;21041;-37
2022/11/01 09:22:36;;;;;;;1.90;1.30;;;19.00;94.70;;;;;;5083300;28;20814;-38
2022/11/01 09:25:03;;;;;;;4.20;1.70;;;19.20;94.90;;;;;;5085141;28;20423;-38
2022/11/01 09:27:29;;;;;;;7.50;1.87;;;19.40;95.20;;;;;;5075609;28;20439;-38
2022/11/01 09:29:54;;;;;;;8.27;2.30;;;19.40;93.70;;;;;;5084213;28;20462;-38
2022/11/01 09:32:20;;;;;;;6.17;2.40;;;19.60;93.80;;;;;;5090336;28;20199;-38
2022/11/01 09:34:48;;;;;;;6.23;1.83;;;19.70;93.60;;;;;;5090445;28;20765;-38
2022/11/01 09:37:15;;;;;;;8.60;1.50;;;19.90;93.70;;;;;;5089590;28;20423;-38
2022/11/01 09:39:40;;;;;;;5.33;1.37;;;19.80;92.60;;;;;;5090278;28;20844;-38
2022/11/01 09:42:22;;;;;;;6.00;1.50;;;19.80;93.10;;;;;;5091204;28;20418;-39
2022/11/01 09:44:52;;;;;;;5.57;1.23;;;19.80;92.60;;;;;;5088567;28;20188;-38
2022/11/01 09:47:25;;;;;;;4.50;1.53;;;19.80;92.80;;;;;;5087655;28;20446;-38
2022/11/01 09:50:02;;;;;;;6.87;1.20;;;19.80;92.90;;;;;;5088263;28;20410;-38
2022/11/01 09:52:27;;;;;;;6.53;1.77;;;19.90;93.00;;;;;;5088593;28;20415;-38
2022/11/01 09:54:53;;;;;;;7.40;1.87;;;19.80;92.60;;;;;;5089225;28;20414;-38
2022/11/01 09:57:34;;;;;;;5.90;1.43;;;19.80;92.50;;;;;;5091625;28;20173;-38
2022/11/01 10:00:12;;;;;;;5.00;1.73;;;19.80;92.70;;;;;;5090324;28;20177;-38
2022/11/01 10:02:56;;;;;;;6.83;1.70;;;19.90;93.20;;;;;;5090412;28;20504;-38
2022/11/01 10:05:40;;;;;;;4.93;1.27;;;19.80;92.50;;;;;;5090361;28;20438;-38
2022/11/01 10:08:31;;;;;;;6.40;2.00;;;19.70;92.70;;;;;;5088166;28;20656;-39
2022/11/01 10:11:00;;;;;;;4.90;1.47;;;19.80;92.80;;;;;;5081180;28;20430;-38
2022/11/01 10:14:00;;;;;;;3.70;1.80;;;19.80;92.50;;;;;;5087919;28;20418;-38
2022/11/01 10:16:35;;;;;;;9.87;2.80;;;19.70;92.40;;;;;;5087837;28;21016;-39
2022/11/01 10:19:20;;;;;;;7.80;1.77;;;19.60;93.10;;;;;;5090043;28;20443;-38
2022/11/01 10:21:54;;;;;;;3.57;1.20;;;19.60;93.30;;;;;;5087716;28;20781;-38
2022/11/01 10:24:33;;;;;;;4.30;1.40;;;19.60;92.70;;;;;;5092422;28;20451;-38
2022/11/01 10:27:24;;;;;;;3.17;1.67;;;19.50;92.80;;;;;;5089844;28;20466;-38
2022/11/01 10:30:03;;;;;;;5.20;1.90;;;19.30;93.50;;;;;;5090272;28;20419;-38
2022/11/01 10:32:36;;;;;;;4.83;1.70;;;19.20;92.90;;;;;;5081951;28;20458;-38
2022/11/01 10:35:19;;;;;;;7.80;1.87;;;19.10;93.50;;;;;;5089579;28;20457;-38
2022/11/01 10:38:06;;;;;;;5.63;1.53;;;18.90;93.40;;;;;;5087434;28;20893;-38
2022/11/01 10:40:40;;;;;;;6.53;1.53;;;18.90;93.60;;;;;;5088641;28;20410;-38
2022/11/01 10:43:15;;;;;;;4.97;1.40;;;18.70;93.70;;;;;;5086922;28;20419;-38
2022/11/01 10:45:44;;;;;;;5.60;1.33;;;18.70;94.20;;;;;;5089635;28;20418;-39
2022/11/01 10:48:31;;;;;;;4.23;1.33;;;18.60;94.40;;;;;;5090062;28;20425;-38
2022/11/01 10:51:02;;;;;;;4.77;1.20;;;18.50;94.50;;;;;;5085530;28;21093;-38
2022/11/01 10:53:33;;;;;;;8.53;1.60;;;18.50;95.10;;;;;;5069642;28;20569;-38
2022/11/01 10:56:07;;;;;;;7.13;1.73;;;18.50;95.10;;;;;;5072044;28;20499;-38
2022/11/01 10:58:48;;;;;;;7.10;1.80;;;18.40;95.10;;;;;;5096180;28;20501;-38
2022/11/01 11:01:21;;;;;;;3.00;1.13;;;18.30;95.90;;;;;;5090410;28;20952;-38
2022/11/01 11:03:48;;;;;;;7.50;1.50;;;18.30;96.00;;;;;;5069701;28;20449;-37
2022/11/01 11:06:14;;;;;;;3.60;1.30;;;18.30;95.90;;;;;;5068871;28;20427;-38
2022/11/01 11:08:43;;;;;;;4.47;1.70;;;18.40;96.30;;;;;;5069382;28;20426;-37
2022/11/01 11:11:14;;;;;;;6.10;1.53;;;18.40;96.30;;;;;;5069524;28;20415;-38
2022/11/01 11:13:42;;;;;;;10.60;1.80;;;18.50;95.70;;;;;;5069335;28;20451;-38
2022/11/01 11:16:29;;;;;;;7.17;1.50;;;18.50;95.50;;;;;;5086118;28;20470;-38
2022/11/01 11:19:07;;;;;;;4.23;1.60;;;18.50;95.10;;;;;;5089237;28;20425;-38
2022/11/01 11:21:33;;;;;;;3.37;1.20;;;18.40;95.40;;;;;;5088841;28;20427;-37
2022/11/01 11:23:59;;;;;;;5.27;1.67;;;18.40;95.80;;;;;;5088892;28;20411;-38
2022/11/01 11:26:26;;;;;;;7.00;2.10;;;18.30;95.50;;;;;;5089437;28;20419;-38
2022/11/01 11:28:56;;;;;;;5.77;1.77;;;18.40;95.90;;;;;;5088558;28;20916;-38
2022/11/01 11:31:24;;;;;;;6.37;1.17;;;18.40;95.40;;;;;;5094789;28;20422;-37
2022/11/01 11:33:55;;;;;;;10.17;1.73;;;18.40;95.30;;;;;;5086954;28;20785;-37
2022/11/01 11:36:33;;;;;;;9.53;1.67;;;18.40;95.20;;;;;;5087138;28;20458;-37
2022/11/01 11:39:00;;;;;;;6.03;1.80;;;18.50;94.70;;;;;;5088515;28;20556;-37
2022/11/01 11:41:29;;;;;;;8.50;1.93;;;18.50;95.10;;;;;;5088928;28;20446;-37
2022/11/01 11:43:54;;;;;;;7.47;1.93;;;18.50;94.70;;;;;;5085016;28;20438;-37
2022/11/01 11:46:22;;;;;;;2.87;1.50;;;18.60;94.70;;;;;;5088819;28;20418;-38
2022/11/01 11:48:56;;;;;;;5.40;1.50;;;18.80;94.80;;;;;;5088223;28;20234;-38
2022/11/01 11:51:24;;;;;;;4.73;1.53;;;18.80;94.10;;;;;;5088042;28;20426;-37
2022/11/01 11:54:15;;;;;;;6.97;1.80;;;18.80;94.20;;;;;;5095173;28;20424;-37
2022/11/01 11:56:41;;;;;;;8.50;1.20;;;18.90;94.50;;;;;;5107493;28;20461;-38
2022/11/01 11:59:20;;;;;;;6.57;1.90;;;19.00;94.20;;;;;;5091167;28;21154;-38
2022/11/01 12:01:47;;;;;;;6.77;1.83;;;19.00;94.40;;;;;;5087930;28;20485;-38
2022/11/01 12:04:15;;;;;;;6.70;2.00;;;19.10;94.50;;;;;;5088838;28;20992;-38
2022/11/01 12:06:43;;;;;;;6.20;1.23;;;19.30;94.30;;;;;;5088779;28;20211;-38
2022/11/01 12:09:33;;;;;;;5.00;1.50;;;19.30;94.40;;;;;;5087842;28;21057;-39
2022/11/01 12:12:06;;;;;;;4.20;1.53;;;19.40;93.70;;;;;;5089080;28;20406;-38
2022/11/01 12:14:36;;;;;;;6.07;1.53;;;19.40;93.70;;;;;;5088778;28;20422;-37
2022/11/01 12:17:20;;;;;;;7.00;1.67;;;19.30;93.40;;;;;;5089301;28;20454;-39
2022/11/01 12:19:46;;;;;;;5.73;1.30;;;19.40;93.40;;;;;;5092648;28;20414;-38
2022/11/01 12:22:11;;;;;;;7.70;1.63;;;19.40;93.90;;;;;;5093082;28;20417;-38
2022/11/01 12:24:45;;;;;;;4.70;1.40;;;19.50;94.00;;;;;;5092710;28;20188;-38
2022/11/01 12:27:19;;;;;;;6.60;1.90;;;19.50;93.20;;;;;;5092695;28;20181;-38
2022/11/01 12:29:53;;;;;;;4.90;1.80;;;19.50;93.80;;;;;;5092288;28;20768;-38
2022/11/01 12:32:24;;;;;;;8.10;1.67;;;19.50;94.00;;;;;;5091701;28;20414;-38
2022/11/01 12:34:53;;;;;;;5.57;1.50;;;19.60;94.20;;;;;;5091644;28;20428;-38
2022/11/01 12:37:53;;;;;;;5.50;1.67;;;19.60;93.60;;;;;;5110074;28;20432;-38
2022/11/01 12:40:37;;;;;;;7.07;1.70;;;19.60;93.40;;;;;;5088805;28;20438;-38
2022/11/01 12:43:21;;;;;;;4.90;1.67;;;19.50;93.40;;;;;;5112782;28;20470;-38
2022/11/01 12:46:14;;;;;;;3.70;1.60;;;19.40;93.00;;;;;;5112940;28;20405;-38
2022/11/01 12:49:00;;;;;;;3.63;1.87;;;19.40;93.70;;;;;;5111086;28;20416;-38
2022/11/01 12:51:30;;;;;;;11.17;1.77;;;19.40;93.80;;;;;;5113029;28;20750;-37
2022/11/01 12:54:05;;;;;;;8.50;1.93;;;19.40;93.80;;;;;;5112374;28;20474;-38
2022/11/01 12:56:31;;;;;;;8.60;1.90;;;19.30;93.40;;;;;;5104643;28;20449;-38
2022/11/01 12:58:57;;;;;;;11.60;1.90;;;19.20;93.60;;;;;;5088519;28;20503;-38
2022/11/01 13:01:39;;;;;;;5.33;1.77;;;19.10;93.60;;;;;;5091499;28;20466;-37